createdAt,value
2016-05-24T00:00:36.607Z,13.8
2016-05-24T00:03:50.615Z,13.7
2016-05-24T00:07:09.375Z,13.7
2016-05-24T00:10:13.790Z,13.7
2016-05-24T00:13:27.658Z,13.6
2016-05-24T00:16:41.806Z,13.6
2016-05-24T00:19:56.096Z,13.6
2016-05-24T00:23:10.919Z,13.5
2016-05-24T00:26:15.364Z,13.5
2016-05-24T00:29:29.107Z,13.4
2016-05-24T00:32:43.131Z,13.4
2016-05-24T00:35:55.435Z,13.4
2016-05-24T00:39:09.462Z,13.3
2016-05-24T00:42:23.236Z,13.3
2016-05-24T00:45:37.212Z,13.3
2016-05-24T00:48:50.611Z,13.2
2016-05-24T00:52:09.466Z,13.2
2016-05-24T00:55:13.771Z,13.2
2016-05-24T00:58:27.747Z,13.2
2016-05-24T01:01:41.123Z,13.2
2016-05-24T01:04:52.856Z,13.2
2016-05-24T01:08:13.450Z,13.1
2016-05-24T01:11:17.667Z,13.1
2016-05-24T01:14:31.374Z,13.1
2016-05-24T01:17:45.184Z,13.1
2016-05-24T01:21:03.711Z,13.1
2016-05-24T01:24:13.160Z,13.1
2016-05-24T01:27:17.327Z,13.1
2016-05-24T01:30:31.178Z,13.1
2016-05-24T01:33:44.969Z,13.1
2016-05-24T01:36:58.366Z,13.1
2016-05-24T01:40:12.113Z,13.1
2016-05-24T01:43:25.932Z,13.1
2016-05-24T01:46:39.535Z,13.1
2016-05-24T01:49:52.871Z,13.1
2016-05-24T01:53:11.225Z,13.1
2016-05-24T01:56:15.296Z,13.1
2016-05-24T01:59:28.882Z,13.1
2016-05-24T02:02:42.469Z,13.1
2016-05-24T02:05:56.163Z,13.1
2016-05-24T02:09:10.125Z,13.1
2016-05-24T02:12:23.574Z,13.1
2016-05-24T02:15:36.754Z,13
2016-05-24T02:18:50.652Z,13
2016-05-24T02:22:09.348Z,13
2016-05-24T02:25:13.515Z,13.1
2016-05-24T02:28:27.335Z,13.1
2016-05-24T02:31:40.687Z,13
2016-05-24T02:34:54.257Z,13
2016-05-24T02:38:13.049Z,12.9
2016-05-24T02:41:17.308Z,12.9
2016-05-24T02:44:35.409Z,12.9
2016-05-24T02:47:45.215Z,12.9
2016-05-24T02:50:58.926Z,12.9
2016-05-24T02:54:12.780Z,12.8
2016-05-24T02:57:26.523Z,12.7
2016-05-24T03:00:40.125Z,12.7
2016-05-24T03:03:53.773Z,12.7
2016-05-24T03:10:16.417Z,12.8
2016-05-24T03:13:30.424Z,12.8
2016-05-24T03:16:44.246Z,12.9
2016-05-24T03:19:57.784Z,12.9
2016-05-24T03:23:11.777Z,13
2016-05-24T03:26:25.866Z,13.1
2016-05-24T03:29:39.640Z,13.1
2016-05-24T03:32:51.992Z,13.1
2016-05-24T03:36:10.265Z,13.2
2016-05-24T03:39:14.417Z,13.2
2016-05-24T03:42:28.174Z,13.2
2016-05-24T03:45:41.886Z,13.2
2016-05-24T03:48:55.799Z,13.3
2016-05-24T03:52:13.670Z,13.3
2016-05-24T03:55:18.007Z,13.3
2016-05-24T03:58:31.984Z,13.3
2016-05-24T04:01:45.367Z,13.4
2016-05-24T04:05:04.203Z,13.4
2016-05-24T04:08:13.494Z,13.4
2016-05-24T04:11:17.737Z,13.5
2016-05-24T04:14:31.541Z,13.6
2016-05-24T04:17:45.113Z,13.6
2016-05-24T04:20:58.870Z,13.7
2016-05-24T04:24:12.504Z,13.8
2016-05-24T04:27:26.045Z,13.9
2016-05-24T04:30:39.617Z,13.9
2016-05-24T04:33:53.406Z,14
2016-05-24T04:37:12.336Z,14.1
2016-05-24T04:40:16.753Z,14.2
2016-05-24T04:43:30.729Z,14.3
2016-05-24T04:46:44.581Z,14.4
2016-05-24T04:49:58.042Z,14.5
2016-05-24T04:53:12.051Z,14.6
2016-05-24T04:56:25.796Z,14.8
2016-05-24T04:59:39.506Z,14.9
2016-05-24T05:02:53.359Z,15.1
2016-05-24T05:06:12.570Z,15.3
2016-05-24T05:09:17.050Z,15.3
2016-05-24T05:12:31.089Z,15.2
2016-05-24T05:15:44.909Z,15.1
2016-05-24T05:18:58.792Z,15
2016-05-24T05:22:16.507Z,14.9
2016-05-24T05:25:26.405Z,14.9
2016-05-24T05:28:37.147Z,14.9
2016-05-24T05:31:50.781Z,14.9
2016-05-24T05:35:09.867Z,15
2016-05-24T05:38:14.281Z,15.1
2016-05-24T05:41:28.214Z,15.2
2016-05-24T05:44:42.347Z,15.2
2016-05-24T05:47:56.213Z,15.2
2016-05-24T05:51:09.691Z,15.2
2016-05-24T05:54:23.810Z,15.2
2016-05-24T05:57:35.897Z,15.4
2016-05-24T06:00:49.843Z,15.6
2016-05-24T06:04:10.944Z,15.7
2016-05-24T06:07:15.531Z,15.8
2016-05-24T06:10:29.056Z,15.9
2016-05-24T06:13:40.518Z,15.8
2016-05-24T06:16:54.807Z,15.8
2016-05-24T06:20:13.519Z,15.8
2016-05-24T06:23:17.966Z,15.7
2016-05-24T06:26:31.944Z,15.6
2016-05-24T06:29:45.640Z,15.5
2016-05-24T06:33:04.820Z,15.5
2016-05-24T06:36:14.281Z,15.6
2016-05-24T06:39:18.776Z,15.7
2016-05-24T06:42:32.611Z,15.7
2016-05-24T06:45:47.105Z,15.7
2016-05-24T06:49:05.800Z,15.8
2016-05-24T06:52:10.417Z,15.9
2016-05-24T06:55:24.788Z,16
2016-05-24T06:58:38.015Z,15.9
2016-05-24T07:01:49.788Z,15.7
2016-05-24T07:05:10.296Z,15.6
2016-05-24T07:08:14.835Z,15.6
2016-05-24T07:11:28.565Z,15.5
2016-05-24T07:14:42.214Z,15.6
2016-05-24T07:17:56.003Z,15.5
2016-05-24T07:21:14.636Z,15.6
2016-05-24T07:24:19.222Z,15.7
2016-05-24T07:27:33.296Z,15.9
2016-05-24T07:30:47.694Z,16.2
2016-05-24T07:34:07.093Z,16.5
2016-05-24T07:37:11.913Z,16.6
2016-05-24T07:40:25.612Z,16.5
2016-05-24T07:43:39.745Z,16.5
2016-05-24T07:46:54.065Z,16.7
2016-05-24T07:50:12.652Z,16.9
2016-05-24T07:53:17.253Z,17
2016-05-24T07:56:31.499Z,17
2016-05-24T07:59:45.663Z,16.8
2016-05-24T08:02:59.749Z,16.9
2016-05-24T08:06:13.991Z,17.2
2016-05-24T08:09:28.206Z,17.3
2016-05-24T08:12:42.151Z,17.2
2016-05-24T08:15:56.268Z,16.9
2016-05-24T08:19:10.401Z,16.7
2016-05-24T08:22:23.942Z,16.6
2016-05-24T08:25:38.092Z,16.4
2016-05-24T08:28:52.257Z,16.4
2016-05-24T08:32:10.968Z,16.3
2016-05-24T08:35:16.694Z,16.4
2016-05-24T08:38:29.487Z,16.5
2016-05-24T08:41:43.510Z,16.5
2016-05-24T08:44:57.409Z,16.6
2016-05-24T08:48:11.479Z,16.6
2016-05-24T08:51:25.332Z,16.6
2016-05-24T08:54:39.545Z,16.5
2016-05-24T08:57:53.147Z,16.3
2016-05-24T09:01:12.233Z,16.2
2016-05-24T09:04:14.898Z,16.1
2016-05-24T09:07:31.112Z,16
2016-05-24T09:10:45.323Z,15.9
2016-05-24T09:13:59.159Z,15.8
2016-05-24T09:17:13.198Z,15.7
2016-05-24T09:20:27.175Z,15.7
2016-05-24T09:23:40.998Z,15.8
2016-05-24T09:26:55.038Z,16
2016-05-24T09:30:14.983Z,16.2
2016-05-24T09:33:18.788Z,16.3
2016-05-24T09:36:32.564Z,16.5
2016-05-24T09:39:46.635Z,16.8
2016-05-24T09:43:05.518Z,16.9
2016-05-24T09:46:15.167Z,16.8
2016-05-24T09:49:19.848Z,16.7
2016-05-24T09:52:33.811Z,16.6
2016-05-24T09:55:47.866Z,16.5
2016-05-24T09:59:07.077Z,16.6
2016-05-24T10:02:09.647Z,16.5
2016-05-24T10:05:25.968Z,16.5
2016-05-24T10:08:39.739Z,16.4
2016-05-24T10:11:53.929Z,16.3
2016-05-24T10:15:12.695Z,16.3
2016-05-24T10:18:17.267Z,16.2
2016-05-24T10:21:31.642Z,16.2
2016-05-24T10:24:45.501Z,16.1
2016-05-24T10:27:59.512Z,16.2
2016-05-24T10:31:13.974Z,16.4
2016-05-24T10:34:27.607Z,16.5
2016-05-24T10:37:41.259Z,16.8
2016-05-24T10:40:55.314Z,17
2016-05-24T10:44:14.541Z,16.9
2016-05-24T10:47:19.111Z,16.8
2016-05-24T10:50:32.635Z,16.7
2016-05-24T10:53:46.693Z,16.6
2016-05-24T10:57:05.654Z,16.5
2016-05-24T11:00:15.318Z,16.6
2016-05-24T11:03:20.045Z,16.7
2016-05-24T11:06:32.178Z,16.8
2016-05-24T11:09:46.407Z,16.9
2016-05-24T11:13:00.587Z,16.8
2016-05-24T11:16:14.783Z,16.6
2016-05-24T11:19:28.244Z,16.6
2016-05-24T11:22:42.364Z,16.5
2016-05-24T11:25:56.341Z,16.6
2016-05-24T11:29:14.912Z,16.7
2016-05-24T11:32:19.576Z,16.9
2016-05-24T11:35:33.132Z,17
2016-05-24T11:38:47.329Z,17.2
2016-05-24T11:42:06.400Z,17.7
2016-05-24T11:45:11.205Z,18.1
2016-05-24T11:48:25.713Z,18.2
2016-05-24T11:51:40.238Z,18.4
2016-05-24T11:54:52.622Z,18.6
2016-05-24T11:58:11.583Z,18.6
2016-05-24T12:01:16.435Z,18.5
2016-05-24T12:04:28.943Z,18.4
2016-05-24T12:07:43.032Z,18.3
2016-05-24T12:10:56.837Z,18.5
2016-05-24T12:14:10.923Z,18.6
2016-05-24T12:17:25.181Z,18.7
2016-05-24T12:20:38.707Z,18.9
2016-05-24T12:23:53.185Z,18.8
2016-05-24T12:27:12.333Z,18.9
2016-05-24T12:30:17.341Z,18.9
2016-05-24T12:33:29.334Z,19
2016-05-24T12:36:48.454Z,19
2016-05-24T12:39:53.181Z,19.1
2016-05-24T12:43:12.189Z,18.9
2016-05-24T12:46:17.010Z,18.8
2016-05-24T12:49:31.095Z,18.8
2016-05-24T12:52:45.622Z,18.6
2016-05-24T12:55:57.880Z,18.7
2016-05-24T12:59:13.966Z,18.7
2016-05-24T13:02:28.396Z,18.6
2016-05-24T13:05:42.969Z,18.5
2016-05-24T13:08:57.040Z,18.6
2016-05-24T13:12:11.204Z,18.6
2016-05-24T13:15:25.634Z,18.7
2016-05-24T13:18:39.801Z,18.9
2016-05-24T13:21:54.387Z,18.8
2016-05-24T13:25:13.583Z,18.8
2016-05-24T13:28:18.420Z,18.7
2016-05-24T13:31:32.630Z,18.6
2016-05-24T13:34:47.063Z,18.6
2016-05-24T13:38:06.321Z,18.6
2016-05-24T13:41:11.126Z,18.6
2016-05-24T13:44:25.025Z,18.7
2016-05-24T13:47:39.473Z,18.6
2016-05-24T13:50:53.669Z,18.4
2016-05-24T13:57:17.435Z,18.3
2016-05-24T14:00:31.552Z,18.3
2016-05-24T14:03:45.124Z,18.3
2016-05-24T14:06:59.587Z,18.3
2016-05-24T14:10:13.829Z,18.2
2016-05-24T14:13:28.290Z,18.3
2016-05-24T14:16:39.739Z,18.3
2016-05-24T14:19:52.153Z,18.3
2016-05-24T14:23:13.520Z,18.2
2016-05-24T14:26:18.169Z,18
2016-05-24T14:29:32.567Z,17.9
2016-05-24T14:32:47.094Z,17.9
2016-05-24T14:36:06.586Z,17.9
2016-05-24T14:39:11.313Z,17.7
2016-05-24T14:42:25.634Z,17.5
2016-05-24T14:45:39.939Z,17.5
2016-05-24T14:48:54.356Z,17.3
2016-05-24T14:52:13.676Z,17.2
2016-05-24T14:55:16.216Z,17
2016-05-24T14:58:32.489Z,16.7
2016-05-24T15:01:46.922Z,16.6
2016-05-24T15:05:01.196Z,16.4
2016-05-24T15:08:15.626Z,16.3
2016-05-24T15:11:30.024Z,16.2
2016-05-24T15:14:44.395Z,16.2
2016-05-24T15:17:58.590Z,16.3
2016-05-24T15:21:13.036Z,16.3
2016-05-24T15:24:27.262Z,16.3
2016-05-24T15:27:41.662Z,16.2
2016-05-24T15:30:56.156Z,16.2
2016-05-24T15:34:15.492Z,16.1
2016-05-24T15:37:20.219Z,16.1
2016-05-24T15:40:34.571Z,16
2016-05-24T15:43:48.784Z,15.9
2016-05-24T15:47:06.887Z,15.9
2016-05-24T15:50:16.410Z,15.8
2016-05-24T15:53:21.059Z,15.7
2016-05-24T15:56:35.270Z,15.6
2016-05-24T15:59:49.484Z,15.6
2016-05-24T16:03:08.727Z,15.5
2016-05-24T16:06:13.391Z,15.5
2016-05-24T16:09:27.508Z,15.4
2016-05-24T16:12:41.766Z,15.3
2016-05-24T16:15:56.089Z,15.3
2016-05-24T16:19:15.238Z,15.2
2016-05-24T16:22:19.762Z,15.1
2016-05-24T16:25:33.911Z,15.1
2016-05-24T16:28:48.187Z,15
2016-05-24T16:32:07.539Z,15
2016-05-24T16:35:11.938Z,15
2016-05-24T16:38:26.274Z,15
2016-05-24T16:41:40.782Z,15
2016-05-24T16:44:55.027Z,15
2016-05-24T16:48:14.488Z,15
2016-05-24T16:51:18.918Z,15
2016-05-24T16:54:33.192Z,14.9
2016-05-24T16:57:47.250Z,14.9
2016-05-24T17:01:06.633Z,14.9
2016-05-24T17:04:16.219Z,14.9
2016-05-24T17:07:20.681Z,14.8
2016-05-24T17:10:34.844Z,14.7
2016-05-24T17:13:49.183Z,14.6
2016-05-24T17:17:08.363Z,14.6
2016-05-24T17:20:11.043Z,14.7
2016-05-24T17:23:27.177Z,14.7
2016-05-24T17:26:41.340Z,14.7
2016-05-24T17:29:55.633Z,14.7
2016-05-24T17:33:14.828Z,14.7
2016-05-24T17:36:19.336Z,14.6
2016-05-24T17:39:33.594Z,14.6
2016-05-24T17:42:47.980Z,14.6
2016-05-24T17:46:07.285Z,14.5
2016-05-24T17:49:11.809Z,14.5
2016-05-24T17:52:26.004Z,14.4
2016-05-24T17:55:39.965Z,14.4
2016-05-24T17:58:54.257Z,14.3
2016-05-24T18:02:13.375Z,14.2
2016-05-24T18:05:17.852Z,14.2
2016-05-24T18:08:31.922Z,14.2
2016-05-24T18:11:46.149Z,14.2
2016-05-24T18:15:00.410Z,14.2
2016-05-24T18:18:14.480Z,14.1
2016-05-24T18:21:28.941Z,14.1
2016-05-24T18:24:43.279Z,14
2016-05-24T18:27:55.414Z,13.9
2016-05-24T18:31:14.609Z,13.9
2016-05-24T18:34:17.117Z,13.8
2016-05-24T18:37:33.016Z,13.8
2016-05-24T18:40:47.072Z,13.7
2016-05-24T18:44:01.159Z,13.7
2016-05-24T18:47:15.324Z,13.6
2016-05-24T18:50:29.410Z,13.6
2016-05-24T18:53:43.481Z,13.5
2016-05-24T18:56:57.992Z,13.4
2016-05-24T19:00:12.375Z,13.4
2016-05-24T19:03:26.648Z,13.3
2016-05-24T19:06:38.734Z,13.3
2016-05-24T19:09:54.886Z,13.3
2016-05-24T19:13:14.256Z,13.3
2016-05-24T19:16:18.770Z,13.3
2016-05-24T19:19:33.164Z,13.3
2016-05-24T19:22:47.322Z,13.3
2016-05-24T19:26:01.502Z,13.3
2016-05-24T19:29:15.546Z,13.3
2016-05-24T19:32:27.652Z,13.3
2016-05-24T19:35:41.772Z,13.2
2016-05-24T19:38:55.939Z,13.2
2016-05-24T19:42:15.104Z,13.1
2016-05-24T19:45:19.533Z,13.1
2016-05-24T19:48:33.620Z,13.1
2016-05-24T19:51:47.846Z,13.1
2016-05-24T19:55:02.092Z,13.1
2016-05-24T19:58:16.427Z,13.2
2016-05-24T20:01:30.639Z,13.1
2016-05-24T20:04:48.788Z,13.1
2016-05-24T20:07:58.814Z,13.1
2016-05-24T20:11:12.994Z,13
2016-05-24T20:14:27.237Z,13
2016-05-24T20:17:41.556Z,13
2016-05-24T20:20:55.489Z,13
2016-05-24T20:24:14.513Z,13
2016-05-24T20:27:19.006Z,13
2016-05-24T20:30:33.233Z,13.1
2016-05-24T20:33:47.382Z,13
2016-05-24T20:37:01.565Z,13
2016-05-24T20:40:15.618Z,13
2016-05-24T20:43:29.784Z,12.9
2016-05-24T20:46:44.056Z,12.9
2016-05-24T20:49:58.302Z,12.9
2016-05-24T20:53:15.591Z,12.9
2016-05-24T20:56:20.130Z,12.9
2016-05-24T20:59:34.311Z,12.9
2016-05-24T21:02:48.506Z,12.9
2016-05-24T21:06:07.782Z,12.9
2016-05-24T21:09:12.338Z,12.9
2016-05-24T21:12:26.565Z,12.9
2016-05-24T21:15:41.228Z,12.9
2016-05-24T21:18:54.974Z,12.9
2016-05-24T21:22:14.279Z,12.9
2016-05-24T21:25:18.568Z,12.9
2016-05-24T21:28:32.622Z,12.9
2016-05-24T21:31:44.960Z,12.8
2016-05-24T21:34:59.313Z,12.8
2016-05-24T21:38:13.806Z,12.8
2016-05-24T21:41:19.362Z,12.8
2016-05-24T21:44:33.385Z,12.8
2016-05-24T21:47:45.815Z,12.8
2016-05-24T21:50:59.795Z,12.8
2016-05-24T21:54:11.803Z,12.8
2016-05-24T21:57:28.138Z,12.8
2016-05-24T22:00:42.413Z,12.8
2016-05-24T22:03:55.908Z,12.8
2016-05-24T22:07:15.102Z,12.8
2016-05-24T22:10:19.423Z,12.8
2016-05-24T22:13:33.448Z,12.8
2016-05-24T22:16:47.689Z,12.8
2016-05-24T22:20:01.700Z,12.7
2016-05-24T22:23:15.631Z,12.7
2016-05-24T22:26:29.670Z,12.7
2016-05-24T22:29:43.833Z,12.7
2016-05-24T22:32:58.017Z,12.7
2016-05-24T22:36:17.118Z,12.7
2016-05-24T22:39:21.485Z,12.6
2016-05-24T22:42:35.571Z,12.6
2016-05-24T22:45:49.909Z,12.6
2016-05-24T22:49:08.795Z,12.6
2016-05-24T22:52:13.255Z,12.6
2016-05-24T22:55:27.170Z,12.6
2016-05-24T22:58:41.319Z,12.6
2016-05-24T23:01:55.748Z,12.6
2016-05-24T23:05:14.103Z,12.6
2016-05-24T23:08:18.596Z,12.6
2016-05-24T23:11:32.947Z,12.6
2016-05-24T23:14:45.174Z,12.5
2016-05-24T23:17:59.279Z,12.5
2016-05-24T23:21:14.989Z,12.5
2016-05-24T23:24:19.404Z,12.5
2016-05-24T23:27:33.646Z,12.5
2016-05-24T23:30:46.905Z,12.4
2016-05-24T23:34:01.087Z,12.4
2016-05-24T23:37:15.141Z,12.3
2016-05-24T23:40:29.181Z,12.3
2016-05-24T23:43:43.110Z,12.2
2016-05-24T23:46:57.401Z,12.2
2016-05-24T23:50:16.286Z,12.2
2016-05-24T23:53:20.638Z,12.1
2016-05-24T23:56:34.692Z,12.1
